Time;durP1;ratioP1;P1;durP2;ratioP2;P2;SDS_P1;SDS_P2;PMS_P1;PMS_P2;Temp;Humidity;BMP_temperature;BMP_pressure;BME280_temperature;BME280_humidity;BME280_pressure;Samples;Min_cycle;Max_cycle;Signal;HPM_P1;HPM_P2
2022/06/02 00:02:08;;;;;;;4.50;3.53;;;;;;;;;;4920150;29;20284;-44
2022/06/02 00:05:00;;;;;;;6.63;4.25;;;;;;;;;;4918594;29;20209;-44
2022/06/02 00:07:57;;;;;;;4.45;4.05;;;;;;;;;;4919710;29;20288;-44
2022/06/02 00:10:27;;;;;;;5.60;4.18;;;;;;;;;;4920196;29;20313;-45
2022/06/02 00:13:14;;;;;;;4.50;3.83;;;;;;;;;;4919747;29;20215;-44
2022/06/02 00:15:45;;;;;;;5.47;4.07;;;;;;;;;;4920435;29;20209;-44
2022/06/02 00:18:19;;;;;;;5.65;4.05;;;;;;;;;;4961946;28;20212;-44
2022/06/02 00:20:50;;;;;;;9.60;4.25;;;;;;;;;;4998721;28;20197;-44
2022/06/02 00:23:48;;;;;;;5.80;4.07;;;;;;;;;;4997482;28;20214;-44
2022/06/02 00:26:21;;;;;;;6.70;4.07;;;;;;;;;;4998246;28;20645;-44
2022/06/02 00:29:12;;;;;;;4.32;3.92;;;;;;;;;;4998088;28;20195;-44
2022/06/02 00:31:47;;;;;;;4.85;4.18;;;;;;;;;;4997200;28;20202;-45
2022/06/02 00:34:23;;;;;;;7.90;4.25;;;;;;;;;;4998065;28;20265;-44
2022/06/02 00:37:20;;;;;;;5.50;4.00;;;;;;;;;;4998765;28;20527;-44
2022/06/02 00:39:48;;;;;;;4.50;4.10;;;;;;;;;;4996936;28;20234;-44
2022/06/02 00:42:24;;;;;;;5.72;4.25;;;;;;;;;;4997649;28;20540;-44
2022/06/02 00:44:59;;;;;;;3.90;3.60;;;;;;;;;;4997939;28;20221;-44
2022/06/02 00:47:44;;;;;;;5.20;3.80;;;;;;;;;;4998148;28;20198;-44
2022/06/02 00:50:30;;;;;;;5.55;3.97;;;;;;;;;;4997781;28;20190;-44
2022/06/02 00:53:18;;;;;;;4.45;3.30;;;;;;;;;;4996652;28;20301;-44
2022/06/02 00:59:01;;;;;;;4.78;3.55;;;;;;;;;;4997910;28;20236;-50
2022/06/02 01:01:33;;;;;;;9.48;3.72;;;;;;;;;;4998655;28;20209;-45
2022/06/02 01:04:05;;;;;;;4.57;4.10;;;;;;;;;;4997843;28;20229;-45
2022/06/02 01:07:08;;;;;;;5.00;3.20;;;;;;;;;;5005791;28;20233;-46
2022/06/02 01:09:58;;;;;;;7.00;3.70;;;;;;;;;;5017920;28;20217;-45
2022/06/02 01:12:27;;;;;;;5.75;4.15;;;;;;;;;;5017053;28;20190;-44
2022/06/02 01:15:15;;;;;;;10.73;4.93;;;;;;;;;;5016050;28;20512;-44
2022/06/02 01:18:06;;;;;;;6.28;4.85;;;;;;;;;;5017276;28;20222;-44
2022/06/02 01:20:47;;;;;;;6.70;4.70;;;;;;;;;;5017022;28;20205;-45
2022/06/02 01:23:17;;;;;;;5.15;4.20;;;;;;;;;;5015966;28;20206;-44
2022/06/02 01:26:00;;;;;;;5.30;4.25;;;;;;;;;;5017072;28;20197;-44
2022/06/02 01:28:43;;;;;;;7.57;4.63;;;;;;;;;;5016696;28;20247;-44
2022/06/02 01:31:48;;;;;;;6.78;3.70;;;;;;;;;;5015788;28;20204;-44
2022/06/02 01:34:26;;;;;;;7.10;4.00;;;;;;;;;;5016599;28;20201;-45
2022/06/02 01:37:20;;;;;;;5.25;4.03;;;;;;;;;;5015743;28;20200;-45
2022/06/02 01:39:50;;;;;;;6.53;4.05;;;;;;;;;;5016355;28;20625;-44
2022/06/02 01:42:44;;;;;;;6.00;4.55;;;;;;;;;;5015942;28;20672;-45
2022/06/02 01:45:29;;;;;;;7.22;4.35;;;;;;;;;;5015885;28;20296;-44
2022/06/02 01:48:11;;;;;;;7.70;4.07;;;;;;;;;;5015139;28;20189;-44
2022/06/02 01:50:57;;;;;;;12.20;3.58;;;;;;;;;;5016311;28;20183;-44
2022/06/02 01:53:33;;;;;;;8.05;3.58;;;;;;;;;;5016159;28;20205;-44
2022/06/02 01:56:18;;;;;;;9.00;4.15;;;;;;;;;;5016158;28;20300;-43
2022/06/02 01:58:56;;;;;;;6.90;3.80;;;;;;;;;;5015039;28;20532;-44
2022/06/02 02:01:41;;;;;;;6.82;4.28;;;;;;;;;;5015170;28;20627;-44
2022/06/02 02:04:30;;;;;;;5.50;4.32;;;;;;;;;;5015583;28;20656;-45
2022/06/02 02:07:23;;;;;;;11.57;4.50;;;;;;;;;;5015580;28;20580;-44
2022/06/02 02:10:09;;;;;;;7.05;3.65;;;;;;;;;;5011490;28;20213;-44
2022/06/02 02:12:48;;;;;;;6.38;3.72;;;;;;;;;;5015016;28;20217;-45
2022/06/02 02:15:30;;;;;;;5.95;3.70;;;;;;;;;;5015976;28;20202;-44
2022/06/02 02:18:00;;;;;;;4.63;3.70;;;;;;;;;;5015529;28;20194;-45
2022/06/02 02:20:32;;;;;;;7.15;4.20;;;;;;;;;;5015710;28;20193;-44
2022/06/02 02:22:59;;;;;;;5.78;4.25;;;;;;;;;;5014801;28;20217;-45
2022/06/02 02:25:49;;;;;;;6.45;4.40;;;;;;;;;;5015401;28;20201;-44
2022/06/02 02:32:27;;;;;;;5.13;4.45;;;;;;;;;;5015486;28;20281;-44
2022/06/02 02:35:24;;;;;;;11.00;4.40;;;;;;;;;;5014711;28;20185;-46
2022/06/02 02:37:57;;;;;;;7.45;3.92;;;;;;;;;;5014956;28;20197;-45
2022/06/02 02:40:31;;;;;;;4.72;4.30;;;;;;;;;;5015062;28;20538;-44
2022/06/02 02:43:05;;;;;;;4.93;4.03;;;;;;;;;;5014727;28;20251;-45
2022/06/02 02:45:49;;;;;;;6.18;4.30;;;;;;;;;;5015460;28;20189;-46
2022/06/02 02:48:41;;;;;;;5.20;4.70;;;;;;;;;;5014560;28;20620;-44
2022/06/02 02:51:23;;;;;;;6.10;4.55;;;;;;;;;;5014659;28;20210;-44
2022/06/02 02:53:54;;;;;;;5.93;3.92;;;;;;;;;;5015492;28;20240;-44
2022/06/02 02:56:41;;;;;;;6.55;3.60;;;;;;;;;;5020600;28;20706;-45
2022/06/02 02:59:27;;;;;;;5.75;4.30;;;;;;;;;;5032853;28;20204;-45
2022/06/02 03:02:13;;;;;;;6.55;4.15;;;;;;;;;;5033980;28;20208;-44
2022/06/02 03:05:09;;;;;;;7.20;4.18;;;;;;;;;;5033868;28;20195;-44
2022/06/02 03:07:37;;;;;;;8.93;4.25;;;;;;;;;;5034454;28;20243;-44
2022/06/02 03:10:12;;;;;;;5.00;4.50;;;;;;;;;;5034609;28;20205;-44
2022/06/02 03:13:11;;;;;;;7.13;4.40;;;;;;;;;;5034775;28;20612;-44
2022/06/02 03:15:44;;;;;;;9.35;4.50;;;;;;;;;;5034387;28;20210;-44
2022/06/02 03:18:30;;;;;;;9.25;5.07;;;;;;;;;;5034630;28;20192;-44
2022/06/02 03:21:09;;;;;;;8.35;4.75;;;;;;;;;;5034576;28;20231;-43
2022/06/02 03:23:36;;;;;;;4.85;4.40;;;;;;;;;;5034938;28;20224;-44
2022/06/02 03:26:27;;;;;;;6.00;4.43;;;;;;;;;;5035077;28;20216;-44
2022/06/02 03:29:09;;;;;;;10.93;4.90;;;;;;;;;;5034836;28;20185;-44
2022/06/02 03:31:46;;;;;;;6.15;5.25;;;;;;;;;;5035234;28;20189;-45
2022/06/02 03:34:29;;;;;;;6.53;4.63;;;;;;;;;;5034082;28;20274;-45
2022/06/02 03:37:11;;;;;;;7.05;4.78;;;;;;;;;;5034767;28;20193;-44
2022/06/02 03:40:01;;;;;;;9.07;4.78;;;;;;;;;;5034620;28;20197;-45
2022/06/02 03:42:38;;;;;;;6.88;5.07;;;;;;;;;;5034303;28;20184;-45
2022/06/02 03:45:18;;;;;;;6.20;5.15;;;;;;;;;;5034761;28;20199;-45
2022/06/02 03:48:08;;;;;;;7.32;4.50;;;;;;;;;;5034574;28;20212;-44
2022/06/02 03:50:53;;;;;;;5.45;4.53;;;;;;;;;;5033747;28;20197;-45
2022/06/02 03:53:26;;;;;;;5.85;4.80;;;;;;;;;;5034715;28;20296;-44
2022/06/02 03:56:08;;;;;;;6.75;4.70;;;;;;;;;;5033792;28;20258;-45
2022/06/02 03:58:48;;;;;;;6.13;4.82;;;;;;;;;;5034264;28;20199;-44
2022/06/02 04:01:21;;;;;;;6.55;4.82;;;;;;;;;;5032983;28;20196;-49
2022/06/02 04:04:11;;;;;;;6.57;4.60;;;;;;;;;;5005805;28;20625;-49
2022/06/02 04:06:53;;;;;;;7.38;4.95;;;;;;;;;;4994393;28;20309;-46
2022/06/02 04:09:20;;;;;;;6.75;4.75;;;;;;;;;;5006614;28;20255;-44
2022/06/02 04:15:06;;;;;;;7.85;5.10;;;;;;;;;;5001519;28;20221;-45
2022/06/02 04:17:40;;;;;;;9.07;5.00;;;;;;;;;;5013008;28;20237;-44
2022/06/02 04:20:34;;;;;;;7.10;5.20;;;;;;;;;;5025682;28;20225;-45
2022/06/02 04:23:20;;;;;;;5.90;5.22;;;;;;;;;;5017699;28;20225;-44
2022/06/02 04:26:06;;;;;;;6.40;5.53;;;;;;;;;;4999425;28;20234;-48
2022/06/02 04:28:48;;;;;;;8.50;5.47;;;;;;;;;;4996657;28;20241;-46
2022/06/02 04:31:44;;;;;;;8.05;5.88;;;;;;;;;;5007529;28;20237;-46
2022/06/02 04:34:35;;;;;;;7.75;6.13;;;;;;;;;;5005129;28;20226;-45
2022/06/02 04:37:05;;;;;;;9.05;6.25;;;;;;;;;;5029107;28;20229;-47
2022/06/02 04:40:03;;;;;;;7.03;5.80;;;;;;;;;;4995995;28;20288;-46
2022/06/02 04:42:30;;;;;;;7.32;6.28;;;;;;;;;;5027158;28;20680;-45
2022/06/02 04:45:21;;;;;;;6.18;5.57;;;;;;;;;;4996336;28;20242;-44
2022/06/02 04:47:55;;;;;;;9.93;6.93;;;;;;;;;;5052258;28;20221;-48
2022/06/02 04:50:37;;;;;;;7.70;6.90;;;;;;;;;;5016344;28;20233;-48
2022/06/02 04:53:15;;;;;;;8.77;7.22;;;;;;;;;;5015661;28;20240;-45
2022/06/02 04:55:53;;;;;;;9.95;7.95;;;;;;;;;;5015996;28;20225;-45
2022/06/02 04:58:28;;;;;;;12.88;8.40;;;;;;;;;;5015977;28;20251;-48
2022/06/02 05:01:04;;;;;;;9.43;8.52;;;;;;;;;;5016206;28;20679;-46
2022/06/02 05:03:45;;;;;;;11.73;8.63;;;;;;;;;;5015383;28;20667;-46
2022/06/02 05:06:21;;;;;;;10.48;8.65;;;;;;;;;;5015920;28;20252;-46
2022/06/02 05:09:10;;;;;;;15.57;9.15;;;;;;;;;;5015570;28;20528;-48
2022/06/02 05:11:40;;;;;;;9.75;8.70;;;;;;;;;;5016525;28;20283;-45
2022/06/02 05:14:24;;;;;;;10.65;9.02;;;;;;;;;;5015141;28;20256;-45
2022/06/02 05:17:22;;;;;;;12.98;9.50;;;;;;;;;;5014824;28;20232;-46
2022/06/02 05:20:13;;;;;;;12.45;9.00;;;;;;;;;;5016209;28;20732;-46
2022/06/02 05:22:46;;;;;;;13.32;10.10;;;;;;;;;;5016222;28;20232;-45
2022/06/02 05:25:17;;;;;;;12.35;9.90;;;;;;;;;;5015716;28;20348;-45
2022/06/02 05:28:15;;;;;;;12.18;9.63;;;;;;;;;;5015712;28;20679;-51
2022/06/02 05:30:57;;;;;;;13.68;9.70;;;;;;;;;;5015407;28;20252;-46
2022/06/02 05:33:28;;;;;;;14.05;9.95;;;;;;;;;;5015941;28;20217;-46
2022/06/02 05:36:13;;;;;;;12.52;10.40;;;;;;;;;;5016370;28;20233;-45
2022/06/02 05:38:51;;;;;;;13.90;10.30;;;;;;;;;;5015750;28;20190;-46
2022/06/02 05:41:38;;;;;;;10.65;9.30;;;;;;;;;;5016451;28;20225;-45
2022/06/02 05:44:20;;;;;;;13.20;9.52;;;;;;;;;;5016704;28;20555;-45
2022/06/02 05:47:27;;;;;;;9.82;8.82;;;;;;;;;;5016518;28;20204;-45
2022/06/02 05:49:58;;;;;;;10.90;9.68;;;;;;;;;;5016145;28;20193;-45
2022/06/02 05:53:04;;;;;;;12.60;9.95;;;;;;;;;;5016088;28;20206;-45
2022/06/02 05:56:03;;;;;;;10.90;9.35;;;;;;;;;;5016400;28;20197;-46
2022/06/02 05:59:09;;;;;;;13.80;8.90;;;;;;;;;;5015205;28;20285;-45
2022/06/02 06:01:59;;;;;;;11.70;9.18;;;;;;;;;;5015712;28;20204;-45
2022/06/02 06:04:31;;;;;;;14.27;9.70;;;;;;;;;;5015469;28;20213;-45
2022/06/02 06:07:09;;;;;;;10.00;8.20;;;;;;;;;;5015716;28;20283;-45
2022/06/02 06:09:56;;;;;;;11.75;8.80;;;;;;;;;;5015269;28;20199;-45
2022/06/02 06:12:23;;;;;;;10.55;8.80;;;;;;;;;;5016275;28;20640;-45
2022/06/02 06:14:59;;;;;;;10.32;8.23;;;;;;;;;;5016181;28;20256;-46
2022/06/02 06:17:48;;;;;;;9.40;8.40;;;;;;;;;;5015747;28;20193;-45
2022/06/02 06:20:33;;;;;;;10.27;7.63;;;;;;;;;;5015145;28;20609;-45
2022/06/02 06:23:25;;;;;;;8.82;7.93;;;;;;;;;;5015801;28;20201;-45
2022/06/02 06:26:11;;;;;;;11.75;7.55;;;;;;;;;;5015554;28;20186;-49
2022/06/02 06:28:53;;;;;;;11.25;7.40;;;;;;;;;;5015777;28;20536;-45
2022/06/02 06:32:03;;;;;;;10.30;7.40;;;;;;;;;;5014977;28;20189;-45
2022/06/02 06:34:58;;;;;;;16.00;7.20;;;;;;;;;;5015666;28;20190;-45
2022/06/02 06:37:40;;;;;;;8.27;6.78;;;;;;;;;;5015072;28;20194;-45
2022/06/02 06:40:23;;;;;;;8.95;6.75;;;;;;;;;;5015678;28;20201;-45
2022/06/02 06:43:05;;;;;;;11.02;7.20;;;;;;;;;;5015916;28;20597;-45
2022/06/02 06:45:37;;;;;;;8.05;6.70;;;;;;;;;;5015191;28;20636;-45
2022/06/02 06:48:23;;;;;;;10.75;6.13;;;;;;;;;;5015488;28;20196;-45
2022/06/02 06:50:56;;;;;;;7.30;6.60;;;;;;;;;;5014046;28;20639;-45
2022/06/02 06:53:35;;;;;;;9.75;6.75;;;;;;;;;;5015324;28;20189;-45
2022/06/02 06:56:47;;;;;;;7.60;6.28;;;;;;;;;;5014690;28;20200;-45
2022/06/02 07:00:05;;;;;;;7.32;6.60;;;;;;;;;;5014482;28;20236;-45
2022/06/02 07:02:51;;;;;;;6.88;5.70;;;;;;;;;;4955161;29;20207;-45
2022/06/02 07:05:25;;;;;;;9.38;6.20;;;;;;;;;;4955207;29;20235;-45
2022/06/02 07:08:11;;;;;;;7.70;6.05;;;;;;;;;;4939109;29;20254;-45
2022/06/02 07:10:59;;;;;;;9.00;6.20;;;;;;;;;;4939703;29;20218;-45
2022/06/02 07:13:33;;;;;;;7.00;5.82;;;;;;;;;;4955180;29;20203;-45
2022/06/02 07:16:26;;;;;;;7.90;6.50;;;;;;;;;;4955109;29;20223;-45
2022/06/02 07:19:07;;;;;;;7.47;6.10;;;;;;;;;;4939220;29;20203;-45
2022/06/02 07:21:51;;;;;;;7.28;5.85;;;;;;;;;;4939055;29;20230;-45
2022/06/02 07:24:27;;;;;;;7.28;5.93;;;;;;;;;;4939296;29;20710;-47
2022/06/02 07:27:28;;;;;;;7.15;6.38;;;;;;;;;;4955115;29;20195;-45
2022/06/02 07:30:30;;;;;;;9.65;7.30;;;;;;;;;;4955190;29;20196;-45
2022/06/02 07:33:12;;;;;;;9.40;6.80;;;;;;;;;;4955004;29;20625;-47
2022/06/02 07:35:51;;;;;;;7.53;5.93;;;;;;;;;;4955459;29;20199;-46
2022/06/02 07:38:47;;;;;;;7.63;6.15;;;;;;;;;;4979367;28;20215;-45
2022/06/02 07:41:31;;;;;;;8.45;6.82;;;;;;;;;;5014399;28;20202;-45
2022/06/02 07:44:22;;;;;;;9.00;7.03;;;;;;;;;;5014992;28;20213;-46
2022/06/02 07:47:05;;;;;;;14.27;8.20;;;;;;;;;;5013704;28;20198;-45
2022/06/02 07:49:37;;;;;;;13.10;7.55;;;;;;;;;;5014730;28;20205;-48
2022/06/02 07:52:22;;;;;;;11.27;7.50;;;;;;;;;;5014822;28;20629;-45
2022/06/02 07:55:02;;;;;;;8.00;6.70;;;;;;;;;;5015197;28;20197;-46
2022/06/02 07:57:59;;;;;;;9.80;6.30;;;;;;;;;;5014474;28;20198;-45
2022/06/02 08:00:31;;;;;;;9.63;6.30;;;;;;;;;;5013954;28;20205;-45
2022/06/02 08:03:19;;;;;;;7.28;6.40;;;;;;;;;;5017160;28;20208;-45
2022/06/02 08:05:52;;;;;;;8.40;6.60;;;;;;;;;;5018115;28;20280;-46
2022/06/02 08:08:29;;;;;;;8.18;6.10;;;;;;;;;;5018137;28;20189;-45
2022/06/02 08:11:05;;;;;;;9.95;6.85;;;;;;;;;;5018231;28;20284;-45
2022/06/02 08:13:32;;;;;;;8.95;6.93;;;;;;;;;;5018072;28;20248;-45
2022/06/02 08:16:07;;;;;;;10.20;6.82;;;;;;;;;;5018340;28;20212;-48
2022/06/02 08:18:45;;;;;;;10.60;6.72;;;;;;;;;;5018276;28;20529;-45
2022/06/02 08:21:32;;;;;;;8.93;6.85;;;;;;;;;;5017937;28;20200;-45
2022/06/02 08:24:38;;;;;;;7.75;6.95;;;;;;;;;;5017420;28;20221;-46
2022/06/02 08:27:32;;;;;;;6.85;5.95;;;;;;;;;;5017644;28;20566;-45
2022/06/02 08:30:11;;;;;;;8.88;6.72;;;;;;;;;;5017090;28;20193;-45
2022/06/02 08:32:52;;;;;;;7.75;6.80;;;;;;;;;;5017706;28;20193;-45
2022/06/02 08:35:51;;;;;;;9.05;7.53;;;;;;;;;;5017324;28;20221;-45
2022/06/02 08:39:16;;;;;;;9.82;7.75;;;;;;;;;;5018061;28;20304;-46
2022/06/02 08:42:18;;;;;;;11.35;7.70;;;;;;;;;;4961669;28;20264;-45
2022/06/02 08:45:07;;;;;;;7.93;6.95;;;;;;;;;;5017011;28;20236;-46
2022/06/02 08:47:43;;;;;;;9.98;7.10;;;;;;;;;;5016909;28;20201;-46
2022/06/02 08:50:37;;;;;;;8.57;6.65;;;;;;;;;;5017696;28;20194;-46
2022/06/02 08:53:08;;;;;;;11.63;8.07;;;;;;;;;;5017534;28;20297;-45
2022/06/02 08:55:53;;;;;;;9.13;6.95;;;;;;;;;;5017580;28;20216;-45
2022/06/02 08:58:37;;;;;;;8.57;7.63;;;;;;;;;;5017459;28;20205;-48
2022/06/02 09:01:41;;;;;;;10.75;6.63;;;;;;;;;;5017255;28;20264;-47
2022/06/02 09:04:49;;;;;;;11.88;7.38;;;;;;;;;;5017330;28;20579;-50
2022/06/02 09:07:31;;;;;;;9.15;6.82;;;;;;;;;;5014697;28;20319;-46
2022/06/02 09:10:36;;;;;;;6.55;5.88;;;;;;;;;;5017506;28;20209;-45
2022/06/02 09:13:21;;;;;;;6.50;5.60;;;;;;;;;;5016514;28;20621;-45
2022/06/02 09:15:58;;;;;;;6.20;5.43;;;;;;;;;;5017125;28;20190;-46
2022/06/02 09:18:50;;;;;;;9.20;6.18;;;;;;;;;;5016811;28;20192;-45
2022/06/02 09:21:51;;;;;;;8.75;5.95;;;;;;;;;;5016979;28;20197;-45
2022/06/02 09:24:27;;;;;;;10.32;5.80;;;;;;;;;;5017044;28;20213;-45
2022/06/02 09:27:00;;;;;;;7.90;7.10;;;;;;;;;;5016176;28;20631;-45
2022/06/02 09:29:32;;;;;;;8.15;6.90;;;;;;;;;;5016887;28;20193;-45
2022/06/02 09:32:25;;;;;;;7.28;6.50;;;;;;;;;;5016174;28;20193;-46
2022/06/02 09:35:05;;;;;;;6.68;5.82;;;;;;;;;;5015627;28;20197;-45
2022/06/02 09:37:47;;;;;;;6.25;5.55;;;;;;;;;;5016755;28;20205;-46
2022/06/02 09:40:26;;;;;;;6.07;5.47;;;;;;;;;;5016607;28;20186;-45
2022/06/02 09:42:59;;;;;;;6.80;5.55;;;;;;;;;;5016687;28;20201;-46
2022/06/02 09:45:54;;;;;;;6.57;5.57;;;;;;;;;;5015876;28;20226;-45
2022/06/02 09:49:00;;;;;;;5.40;4.80;;;;;;;;;;5016391;28;20553;-45
2022/06/02 09:51:44;;;;;;;5.38;4.45;;;;;;;;;;5016672;28;20189;-45
2022/06/02 09:54:37;;;;;;;6.90;4.75;;;;;;;;;;5015641;28;20198;-45
2022/06/02 10:00:28;;;;;;;6.70;4.70;;;;;;;;;;5016035;28;20197;-45
2022/06/02 10:03:04;;;;;;;5.95;4.65;;;;;;;;;;5016349;28;20193;-45
2022/06/02 10:06:05;;;;;;;8.30;4.72;;;;;;;;;;5016043;28;20228;-46
2022/06/02 10:08:39;;;;;;;8.05;5.53;;;;;;;;;;5016240;28;20292;-45
2022/06/02 10:11:29;;;;;;;6.03;5.05;;;;;;;;;;5016194;28;20557;-45
2022/06/02 10:14:21;;;;;;;6.45;5.75;;;;;;;;;;5015836;28;20648;-45
2022/06/02 10:17:10;;;;;;;7.60;6.05;;;;;;;;;;5016336;28;20511;-46
2022/06/02 10:19:59;;;;;;;8.32;5.20;;;;;;;;;;5014934;28;20232;-45
2022/06/02 10:22:59;;;;;;;9.43;5.55;;;;;;;;;;5015340;28;20197;-45
2022/06/02 10:25:51;;;;;;;6.00;4.85;;;;;;;;;;5014162;28;20213;-45
2022/06/02 10:28:54;;;;;;;6.28;5.25;;;;;;;;;;5015943;28;20260;-46
2022/06/02 10:31:58;;;;;;;9.18;5.93;;;;;;;;;;4955451;29;20203;-45
2022/06/02 10:34:54;;;;;;;6.43;5.35;;;;;;;;;;4955537;29;20614;-45
2022/06/02 10:37:49;;;;;;;8.40;6.70;;;;;;;;;;4955527;29;20199;-45
2022/06/02 10:40:58;;;;;;;8.55;6.00;;;;;;;;;;4955574;29;20191;-45
2022/06/02 10:43:44;;;;;;;8.02;6.18;;;;;;;;;;4955409;29;20238;-45
2022/06/02 10:46:36;;;;;;;6.40;5.80;;;;;;;;;;4955474;29;20234;-45
2022/06/02 10:49:33;;;;;;;8.82;7.22;;;;;;;;;;4939793;29;20238;-45
2022/06/02 10:52:12;;;;;;;9.30;7.78;;;;;;;;;;4949042;29;20211;-45
2022/06/02 10:55:12;;;;;;;10.98;7.47;;;;;;;;;;4955587;29;20219;-45
2022/06/02 10:58:01;;;;;;;9.00;7.00;;;;;;;;;;4955257;29;20247;-45
2022/06/02 11:01:02;;;;;;;8.13;7.10;;;;;;;;;;4955560;29;20215;-45
2022/06/02 11:03:53;;;;;;;9.23;7.43;;;;;;;;;;4939441;29;20217;-45
2022/06/02 11:06:45;;;;;;;10.20;8.77;;;;;;;;;;4954912;29;20290;-45
2022/06/02 11:09:18;;;;;;;9.25;8.00;;;;;;;;;;5014393;28;20218;-45
2022/06/02 11:12:13;;;;;;;10.00;7.88;;;;;;;;;;5015003;28;20193;-47
2022/06/02 11:15:09;;;;;;;7.95;6.80;;;;;;;;;;5014955;28;20204;-46
2022/06/02 11:17:45;;;;;;;7.40;6.57;;;;;;;;;;5014003;28;20205;-45
2022/06/02 11:20:33;;;;;;;8.82;7.22;;;;;;;;;;5014712;28;20193;-46
2022/06/02 11:23:16;;;;;;;9.20;6.95;;;;;;;;;;5015286;28;20273;-45
2022/06/02 11:26:01;;;;;;;9.90;6.28;;;;;;;;;;5014919;28;20306;-47
2022/06/02 11:29:01;;;;;;;7.03;6.05;;;;;;;;;;5014830;28;20555;-45
2022/06/02 11:31:47;;;;;;;9.70;6.72;;;;;;;;;;5014559;28;20198;-45
2022/06/02 11:34:31;;;;;;;6.47;5.50;;;;;;;;;;5015128;28;20197;-46
2022/06/02 11:37:26;;;;;;;6.90;5.43;;;;;;;;;;5016694;28;20189;-46
2022/06/02 11:39:56;;;;;;;6.10;4.72;;;;;;;;;;5015760;28;20699;-51
2022/06/02 11:43:08;;;;;;;5.97;4.97;;;;;;;;;;5013961;28;20278;-48
2022/06/02 11:45:40;;;;;;;8.85;5.07;;;;;;;;;;4973658;28;20328;-46
2022/06/02 11:48:33;;;;;;;7.13;4.40;;;;;;;;;;4973105;28;20568;-50
2022/06/02 11:51:24;;;;;;;4.30;3.90;;;;;;;;;;4959733;28;20553;-46
2022/06/02 11:54:13;;;;;;;4.95;3.95;;;;;;;;;;4973622;28;20222;-45
2022/06/02 11:57:17;;;;;;;4.95;4.03;;;;;;;;;;4973727;28;20596;-46
2022/06/02 11:59:59;;;;;;;5.93;4.18;;;;;;;;;;4974779;28;20218;-47
2022/06/02 12:02:58;;;;;;;8.35;4.43;;;;;;;;;;4972268;28;20223;-46
2022/06/02 12:06:03;;;;;;;4.43;3.50;;;;;;;;;;4967590;28;20778;-45
2022/06/02 12:08:44;;;;;;;5.57;4.43;;;;;;;;;;4972653;28;20696;-47
2022/06/02 12:11:14;;;;;;;5.13;3.38;;;;;;;;;;4972313;28;20234;-47
2022/06/02 12:14:12;;;;;;;3.83;3.05;;;;;;;;;;4975106;28;20699;-48
2022/06/02 12:16:52;;;;;;;6.53;2.97;;;;;;;;;;4973602;28;20222;-48
2022/06/02 12:19:41;;;;;;;4.18;3.15;;;;;;;;;;4973589;28;20230;-46
2022/06/02 12:22:14;;;;;;;4.82;3.00;;;;;;;;;;5009443;28;20240;-51
2022/06/02 12:25:12;;;;;;;3.65;2.92;;;;;;;;;;5015827;28;20217;-48
2022/06/02 12:28:18;;;;;;;7.15;3.65;;;;;;;;;;5014091;28;20217;-45
2022/06/02 12:31:17;;;;;;;3.40;3.10;;;;;;;;;;4982566;28;20690;-47
2022/06/02 12:34:11;;;;;;;3.63;2.75;;;;;;;;;;5013329;28;20229;-48
2022/06/02 12:37:00;;;;;;;3.38;2.30;;;;;;;;;;5014319;28;20245;-48
2022/06/02 12:39:50;;;;;;;2.67;2.35;;;;;;;;;;5015396;28;20240;-46
2022/06/02 12:42:36;;;;;;;2.58;2.20;;;;;;;;;;5013445;28;20228;-47
2022/06/02 12:45:43;;;;;;;4.20;2.13;;;;;;;;;;5019212;28;20291;-48
2022/06/02 12:48:53;;;;;;;3.17;2.30;;;;;;;;;;5015020;28;20279;-50
2022/06/02 12:51:56;;;;;;;10.32;2.60;;;;;;;;;;5015467;28;20276;-51
2022/06/02 12:54:22;;;;;;;2.30;2.10;;;;;;;;;;5020560;28;20340;-50
2022/06/02 12:57:11;;;;;;;2.38;2.17;;;;;;;;;;5026072;28;20228;-46
2022/06/02 12:59:51;;;;;;;4.72;2.60;;;;;;;;;;5030035;28;20618;-51
2022/06/02 13:02:29;;;;;;;4.22;2.90;;;;;;;;;;5035398;28;20233;-53
2022/06/02 13:05:32;;;;;;;4.18;2.83;;;;;;;;;;5035268;28;20686;-47
2022/06/02 13:08:43;;;;;;;5.25;2.97;;;;;;;;;;5035174;28;20251;-46
2022/06/02 13:11:19;;;;;;;3.20;2.90;;;;;;;;;;5025109;28;20251;-47
2022/06/02 13:14:04;;;;;;;3.00;2.70;;;;;;;;;;5035151;28;20681;-47
2022/06/02 13:16:57;;;;;;;5.00;2.72;;;;;;;;;;5035048;28;20231;-49
2022/06/02 13:20:03;;;;;;;3.03;2.70;;;;;;;;;;5035660;28;20232;-48
2022/06/02 13:23:18;;;;;;;6.30;2.75;;;;;;;;;;4974962;28;20230;-47
2022/06/02 13:25:57;;;;;;;6.47;2.50;;;;;;;;;;4962966;28;20235;-48
2022/06/02 13:28:38;;;;;;;5.60;2.75;;;;;;;;;;5012429;28;20319;-47
2022/06/02 13:31:20;;;;;;;4.00;2.60;;;;;;;;;;5016170;28;20245;-51
2022/06/02 13:33:59;;;;;;;3.65;2.70;;;;;;;;;;5016077;28;20221;-47
2022/06/02 13:37:06;;;;;;;4.30;2.50;;;;;;;;;;5016057;28;20225;-48
2022/06/02 13:39:41;;;;;;;6.53;2.90;;;;;;;;;;5016739;28;20293;-46
2022/06/02 13:42:29;;;;;;;6.07;2.92;;;;;;;;;;5017044;28;20209;-46
2022/06/02 13:45:23;;;;;;;5.47;2.42;;;;;;;;;;5016297;28;20204;-50
2022/06/02 13:48:18;;;;;;;4.28;2.45;;;;;;;;;;5012398;28;20193;-47
2022/06/02 13:51:06;;;;;;;3.72;2.80;;;;;;;;;;5004558;28;20205;-48
2022/06/02 14:00:26;;;;;;;3.58;2.55;;;;;;;;;;5015891;28;20255;-55
2022/06/02 14:03:17;;;;;;;3.25;2.60;;;;;;;;;;4984632;28;20212;-53
2022/06/02 14:06:07;;;;;;;2.75;2.45;;;;;;;;;;5015754;28;20232;-53
2022/06/02 14:09:03;;;;;;;4.22;2.90;;;;;;;;;;5015205;28;20293;-53
2022/06/02 14:11:41;;;;;;;3.80;2.90;;;;;;;;;;5015869;28;20185;-53
2022/06/02 14:14:31;;;;;;;5.03;3.03;;;;;;;;;;5015586;28;20612;-52
2022/06/02 14:17:20;;;;;;;3.03;2.72;;;;;;;;;;5015260;28;20515;-54
2022/06/02 14:20:00;;;;;;;3.13;2.80;;;;;;;;;;5011119;28;20237;-54
2022/06/02 14:22:39;;;;;;;3.88;2.97;;;;;;;;;;5014552;28;20676;-51
2022/06/02 14:25:25;;;;;;;5.03;2.70;;;;;;;;;;5014572;28;20295;-53
2022/06/02 14:28:09;;;;;;;4.05;2.70;;;;;;;;;;5015012;28;20225;-53
2022/06/02 14:30:36;;;;;;;4.70;2.47;;;;;;;;;;5014645;28;20279;-53
2022/06/02 14:33:34;;;;;;;9.38;3.20;;;;;;;;;;5014270;28;20630;-51
2022/06/02 14:36:29;;;;;;;3.75;2.80;;;;;;;;;;4998242;28;20336;-53
2022/06/02 14:39:28;;;;;;;5.20;2.90;;;;;;;;;;5013782;28;20252;-54
2022/06/02 14:43:03;;;;;;;6.72;3.00;;;;;;;;;;5014443;28;20233;-50
2022/06/02 14:45:27;;;;;;;5.28;3.13;;;;;;;;;;4994778;28;20308;-55
2022/06/02 14:48:10;;;;;;;3.35;2.90;;;;;;;;;;4994620;28;20226;-55
2022/06/02 14:50:54;;;;;;;3.53;2.90;;;;;;;;;;4993705;28;20607;-55
2022/06/02 14:53:45;;;;;;;4.15;2.92;;;;;;;;;;4993632;28;20228;-55
2022/06/02 14:56:12;;;;;;;4.97;2.92;;;;;;;;;;4993530;28;21405;-55
2022/06/02 14:58:57;;;;;;;5.93;3.00;;;;;;;;;;4994267;28;20225;-54
2022/06/02 15:01:35;;;;;;;5.32;2.78;;;;;;;;;;4994236;28;20324;-46
2022/06/02 15:04:25;;;;;;;2.85;2.60;;;;;;;;;;4993642;28;20363;-46
2022/06/02 15:07:10;;;;;;;4.13;3.00;;;;;;;;;;4994437;28;20249;-47
2022/06/02 15:09:46;;;;;;;3.00;2.70;;;;;;;;;;4994374;28;20605;-49
2022/06/02 15:12:33;;;;;;;3.35;2.30;;;;;;;;;;4994083;28;20230;-49
2022/06/02 15:15:21;;;;;;;9.57;2.95;;;;;;;;;;4994380;28;20230;-47
2022/06/02 15:18:04;;;;;;;4.10;2.90;;;;;;;;;;4997574;28;20218;-46
2022/06/02 15:20:57;;;;;;;4.05;2.63;;;;;;;;;;5013204;28;20541;-48
2022/06/02 15:24:03;;;;;;;3.92;2.78;;;;;;;;;;5013768;28;20734;-47
2022/06/02 15:26:42;;;;;;;3.45;2.83;;;;;;;;;;5013935;28;20268;-47
2022/06/02 15:29:31;;;;;;;5.07;2.70;;;;;;;;;;5013772;28;20232;-47
2022/06/02 15:32:16;;;;;;;3.72;2.25;;;;;;;;;;5013995;28;20237;-47
2022/06/02 15:35:11;;;;;;;4.40;2.75;;;;;;;;;;5013919;28;20304;-46
2022/06/02 15:37:50;;;;;;;6.40;3.20;;;;;;;;;;5012809;28;20241;-51
2022/06/02 15:40:36;;;;;;;5.80;3.30;;;;;;;;;;5013686;28;20232;-46
2022/06/02 15:43:11;;;;;;;5.57;2.97;;;;;;;;;;5013754;28;20232;-47
2022/06/02 15:46:00;;;;;;;4.30;3.10;;;;;;;;;;5012955;28;20233;-49
2022/06/02 15:48:46;;;;;;;3.17;2.88;;;;;;;;;;5015681;28;20221;-48
2022/06/02 15:51:26;;;;;;;3.85;2.60;;;;;;;;;;5019065;28;20540;-47
2022/06/02 15:54:36;;;;;;;3.45;2.90;;;;;;;;;;5033998;28;20243;-46
2022/06/02 15:57:41;;;;;;;9.10;3.15;;;;;;;;;;5033581;28;20628;-46
2022/06/02 16:00:20;;;;;;;3.33;2.67;;;;;;;;;;5034661;28;20185;-46
2022/06/02 16:02:48;;;;;;;4.30;3.25;;;;;;;;;;5033930;28;20632;-47
2022/06/02 16:05:34;;;;;;;4.18;3.03;;;;;;;;;;5033843;28;20666;-46
2022/06/02 16:08:28;;;;;;;3.58;2.80;;;;;;;;;;5019129;28;20688;-46
2022/06/02 16:11:17;;;;;;;2.85;2.50;;;;;;;;;;5013648;28;20205;-46
2022/06/02 16:14:18;;;;;;;3.50;3.13;;;;;;;;;;5013850;28;20217;-45
2022/06/02 16:17:07;;;;;;;5.53;2.88;;;;;;;;;;5014036;28;20221;-48
2022/06/02 16:19:46;;;;;;;6.45;2.85;;;;;;;;;;5014478;28;20271;-47
2022/06/02 16:22:21;;;;;;;6.53;3.35;;;;;;;;;;5015032;28;20220;-46
2022/06/02 16:25:23;;;;;;;3.80;2.75;;;;;;;;;;5018283;28;20182;-46
2022/06/02 16:28:09;;;;;;;4.40;2.70;;;;;;;;;;5017876;28;20237;-46
2022/06/02 16:30:55;;;;;;;2.45;2.20;;;;;;;;;;5018174;28;20194;-49
2022/06/02 16:33:52;;;;;;;2.50;2.30;;;;;;;;;;5034998;28;20219;-46
2022/06/02 16:36:44;;;;;;;3.85;2.40;;;;;;;;;;5037734;28;20196;-47
2022/06/02 16:39:30;;;;;;;7.28;2.78;;;;;;;;;;5036939;28;20566;-46
2022/06/02 16:42:21;;;;;;;4.50;2.50;;;;;;;;;;5037054;28;20197;-46
2022/06/02 16:45:16;;;;;;;2.95;2.42;;;;;;;;;;5036618;28;20267;-46
2022/06/02 16:47:43;;;;;;;3.53;2.22;;;;;;;;;;5036204;28;20297;-47
2022/06/02 16:50:16;;;;;;;5.80;2.30;;;;;;;;;;5037356;28;20496;-47
2022/06/02 16:52:54;;;;;;;2.95;2.30;;;;;;;;;;5036964;28;20275;-46